createdAt,value
2023-10-21T00:00:02.640Z,92.90
2023-10-21T00:00:23.516Z,92.69
2023-10-21T00:00:44.456Z,92.69
2023-10-21T00:01:05.398Z,92.59
2023-10-21T00:01:26.328Z,93.10
2023-10-21T00:01:47.306Z,93.82
2023-10-21T00:02:08.250Z,94.37
2023-10-21T00:02:29.188Z,94.58
2023-10-21T00:02:50.189Z,94.27
2023-10-21T00:03:11.143Z,94.17
2023-10-21T00:03:32.184Z,94.07
2023-10-21T00:03:52.667Z,95.19
2023-10-21T00:04:13.673Z,95.80
2023-10-21T00:04:34.178Z,96.11
2023-10-21T00:04:55.119Z,95.90
2023-10-21T00:05:16.070Z,95.29
2023-10-21T00:05:37.019Z,94.52
2023-10-21T00:05:58.023Z,94.32
2023-10-21T00:06:18.947Z,94.21
2023-10-21T00:06:39.882Z,94.01
2023-10-21T00:07:00.841Z,94.01
2023-10-21T00:07:21.774Z,93.91
2023-10-21T00:07:42.691Z,94.78
2023-10-21T00:08:03.672Z,96.11
2023-10-21T00:08:24.637Z,96.83
2023-10-21T00:08:45.587Z,97.03
2023-10-21T00:09:06.502Z,97.13
2023-10-21T00:09:27.468Z,97.08
2023-10-21T00:09:48.384Z,97.17
2023-10-21T00:10:09.337Z,97.49
2023-10-21T00:10:30.267Z,97.08
2023-10-21T00:10:51.205Z,96.15
2023-10-21T00:11:12.145Z,95.85
2023-10-21T00:11:33.071Z,95.95
2023-10-21T00:11:54.023Z,95.75
2023-10-21T00:12:14.980Z,95.54
2023-10-21T00:12:35.907Z,95.13
2023-10-21T00:12:56.834Z,94.82
2023-10-21T00:13:17.791Z,94.82
2023-10-21T00:13:38.712Z,94.62
2023-10-21T00:13:59.684Z,93.96
2023-10-21T00:14:20.188Z,93.35
2023-10-21T00:14:41.135Z,93.45
2023-10-21T00:15:02.164Z,93.25
2023-10-21T00:15:22.603Z,92.84
2023-10-21T00:15:43.534Z,93.35
2023-10-21T00:16:04.488Z,94.37
2023-10-21T00:16:25.458Z,94.37
2023-10-21T00:16:46.407Z,94.07
2023-10-21T00:17:07.294Z,94.37
2023-10-21T00:17:28.254Z,95.39
2023-10-21T00:17:49.257Z,95.90
2023-10-21T00:18:09.783Z,96.21
2023-10-21T00:18:30.432Z,96.83
2023-10-21T00:18:50.981Z,97.33
2023-10-21T00:19:11.909Z,97.85
2023-10-21T00:19:32.910Z,98.15
2023-10-21T00:19:53.369Z,98.40
2023-10-21T00:20:14.309Z,98.61
2023-10-21T00:20:35.231Z,98.81
2023-10-21T00:20:56.267Z,98.81
2023-10-21T00:21:17.230Z,98.71
2023-10-21T00:21:38.098Z,98.91
2023-10-21T00:21:59.036Z,99.11
2023-10-21T00:22:19.967Z,99.11
2023-10-21T00:22:40.911Z,99.37
2023-10-21T00:23:01.866Z,99.47
2023-10-21T00:23:22.834Z,99.68
2023-10-21T00:23:43.802Z,99.88
2023-10-21T00:24:04.717Z,99.99
2023-10-21T00:24:25.632Z,99.99
2023-10-21T00:24:46.564Z,99.99
2023-10-21T00:25:07.536Z,99.99
2023-10-21T00:25:28.473Z,99.99
2023-10-21T00:25:49.392Z,99.99
2023-10-21T00:26:10.352Z,99.99
2023-10-21T00:26:31.291Z,99.99
2023-10-21T00:26:52.238Z,99.99
2023-10-21T00:27:13.206Z,99.99
2023-10-21T00:27:34.075Z,99.99
2023-10-21T00:27:55.000Z,99.99
2023-10-21T00:28:15.975Z,99.99
2023-10-21T00:28:36.922Z,99.99
2023-10-21T00:28:57.886Z,99.99
2023-10-21T00:29:18.828Z,99.99
2023-10-21T00:29:39.789Z,99.99
2023-10-21T00:30:00.814Z,99.99
2023-10-21T00:30:21.731Z,99.99
2023-10-21T00:30:42.682Z,99.99
2023-10-21T00:31:03.611Z,99.99
2023-10-21T00:31:24.568Z,99.99
2023-10-21T00:31:45.508Z,99.99
2023-10-21T00:32:06.431Z,99.99
2023-10-21T00:32:27.386Z,99.99
2023-10-21T00:32:48.445Z,99.99
2023-10-21T00:33:08.968Z,99.99
2023-10-21T00:33:29.441Z,99.99
2023-10-21T00:33:50.319Z,99.99
2023-10-21T00:34:11.276Z,99.99
2023-10-21T00:34:32.198Z,99.99
2023-10-21T00:34:53.150Z,99.99
2023-10-21T00:35:14.120Z,99.99
2023-10-21T00:35:35.052Z,99.99
2023-10-21T00:35:55.987Z,99.99
2023-10-21T00:36:16.951Z,99.99
2023-10-21T00:36:37.842Z,99.99
2023-10-21T00:36:58.815Z,99.99
2023-10-21T00:37:19.774Z,99.99
2023-10-21T00:37:40.724Z,99.99
2023-10-21T00:38:01.646Z,99.99
2023-10-21T00:38:22.570Z,99.99
2023-10-21T00:38:43.580Z,99.99
2023-10-21T00:39:04.523Z,99.99
2023-10-21T00:39:25.394Z,99.99
2023-10-21T00:39:46.405Z,99.99
2023-10-21T00:40:07.354Z,99.99
2023-10-21T00:40:28.296Z,99.99
2023-10-21T00:40:49.237Z,99.99
2023-10-21T00:41:10.333Z,99.99
2023-10-21T00:41:30.763Z,99.99
2023-10-21T00:41:51.735Z,99.99
2023-10-21T00:42:12.678Z,99.99
2023-10-21T00:42:33.633Z,99.99
2023-10-21T00:42:54.584Z,99.99
2023-10-21T00:43:15.502Z,99.99
2023-10-21T00:43:36.447Z,99.99
2023-10-21T00:43:57.419Z,99.99
2023-10-21T00:44:18.331Z,99.99
2023-10-21T00:44:39.268Z,99.99
2023-10-21T00:45:00.336Z,99.99
2023-10-21T00:45:20.811Z,99.99
2023-10-21T00:45:41.767Z,99.99
2023-10-21T00:46:02.692Z,99.99
2023-10-21T00:46:23.684Z,99.99
2023-10-21T00:46:44.600Z,99.99
2023-10-21T00:47:05.529Z,99.99
2023-10-21T00:47:26.523Z,99.99
2023-10-21T00:47:47.550Z,99.99
2023-10-21T00:48:07.994Z,99.99
2023-10-21T00:48:29.044Z,99.99
2023-10-21T00:48:49.572Z,99.99
2023-10-21T00:49:09.965Z,99.99
2023-10-21T00:49:30.906Z,99.99
2023-10-21T00:49:51.836Z,99.99
2023-10-21T00:50:12.782Z,99.99
2023-10-21T00:50:33.715Z,99.99
2023-10-21T00:50:54.809Z,99.99
2023-10-21T00:51:15.218Z,99.99
2023-10-21T00:51:36.113Z,99.99
2023-10-21T00:51:57.060Z,99.99
2023-10-21T00:52:17.986Z,99.99
2023-10-21T00:52:38.928Z,99.99
2023-10-21T00:52:59.875Z,99.72
2023-10-21T00:53:20.959Z,98.90
2023-10-21T00:53:41.627Z,98.19
2023-10-21T00:54:02.427Z,97.67
2023-10-21T00:54:22.939Z,97.16
2023-10-21T00:54:43.877Z,96.75
2023-10-21T00:55:04.838Z,96.75
2023-10-21T00:55:25.759Z,98.35
2023-10-21T00:55:46.681Z,98.75
2023-10-21T00:56:07.610Z,98.24
2023-10-21T00:56:28.552Z,96.51
2023-10-21T00:56:49.524Z,95.59
2023-10-21T00:57:10.574Z,94.46
2023-10-21T00:57:31.343Z,92.99
2023-10-21T00:57:52.300Z,92.37
2023-10-21T00:58:13.228Z,92.78
2023-10-21T00:58:34.184Z,93.29
2023-10-21T00:58:55.128Z,94.32
2023-10-21T00:59:16.043Z,95.03
2023-10-21T00:59:37.177Z,93.76
2023-10-21T00:59:57.893Z,92.43
2023-10-21T01:00:18.886Z,91.61
2023-10-21T01:00:39.779Z,91.31
2023-10-21T01:01:00.705Z,91.52
2023-10-21T01:01:21.657Z,92.64
2023-10-21T01:01:43.657Z,93.35
2023-10-21T01:02:03.557Z,93.96
2023-10-21T01:02:24.601Z,94.94
2023-10-21T01:02:45.203Z,94.84
2023-10-21T01:03:05.771Z,94.94
2023-10-21T01:03:26.284Z,95.04
2023-10-21T01:03:47.130Z,95.04
2023-10-21T01:04:07.734Z,93.92
2023-10-21T01:04:28.398Z,92.08
2023-10-21T01:04:48.837Z,90.45
2023-10-21T01:05:09.753Z,89.73
2023-10-21T01:05:30.707Z,89.63
2023-10-21T01:05:51.680Z,89.53
2023-10-21T01:06:12.675Z,89.43
2023-10-21T01:06:34.559Z,89.63
2023-10-21T01:06:54.480Z,89.53
2023-10-21T01:07:15.412Z,89.49
2023-10-21T01:07:36.351Z,89.69
2023-10-21T01:07:57.303Z,89.39
2023-10-21T01:08:18.272Z,89.69
2023-10-21T01:08:39.234Z,92.24
2023-10-21T01:09:00.235Z,93.57
2023-10-21T01:09:21.235Z,94.38
2023-10-21T01:09:42.149Z,93.98
2023-10-21T01:10:03.361Z,93.37
2023-10-21T01:10:23.882Z,93.06
2023-10-21T01:10:44.345Z,93.06
2023-10-21T01:11:05.305Z,93.16
2023-10-21T01:11:26.256Z,93.47
2023-10-21T01:11:47.228Z,92.35
2023-10-21T01:12:08.277Z,90.41
2023-10-21T01:12:28.714Z,89.79
2023-10-21T01:12:49.667Z,92.55
2023-10-21T01:13:10.625Z,93.67
2023-10-21T01:13:31.551Z,93.77
2023-10-21T01:13:52.492Z,93.26
2023-10-21T01:14:13.537Z,93.47
2023-10-21T01:14:34.065Z,93.67
2023-10-21T01:14:54.519Z,94.29
2023-10-21T01:15:15.522Z,94.29
2023-10-21T01:15:36.487Z,94.29
2023-10-21T01:15:57.142Z,94.38
2023-10-21T01:16:17.570Z,94.79
2023-10-21T01:16:38.481Z,95.10
2023-10-21T01:16:59.434Z,95.31
2023-10-21T01:17:20.379Z,94.08
2023-10-21T01:17:41.454Z,93.88
2023-10-21T01:18:02.021Z,94.59
2023-10-21T01:18:24.841Z,94.90
2023-10-21T01:18:43.354Z,94.90
2023-10-21T01:19:04.236Z,95.31
2023-10-21T01:19:25.200Z,95.76
2023-10-21T01:19:46.168Z,96.12
2023-10-21T01:20:07.079Z,96.58
2023-10-21T01:20:28.023Z,95.65
2023-10-21T01:20:49.029Z,93.31
2023-10-21T01:21:09.475Z,92.29
2023-10-21T01:21:30.532Z,92.39
2023-10-21T01:21:50.961Z,93.31
2023-10-21T01:22:11.940Z,92.80
2023-10-21T01:22:32.863Z,91.16
2023-10-21T01:22:53.798Z,89.94
2023-10-21T01:23:14.838Z,89.32
2023-10-21T01:23:36.030Z,88.61
2023-10-21T01:23:56.000Z,90.00
2023-10-21T01:24:16.953Z,90.81
2023-10-21T01:24:37.855Z,90.92
2023-10-21T01:24:58.950Z,91.63
2023-10-21T01:25:19.433Z,91.53
2023-10-21T01:25:40.424Z,90.92
2023-10-21T01:26:00.902Z,89.79
2023-10-21T01:26:21.849Z,88.57
2023-10-21T01:26:42.864Z,87.85
2023-10-21T01:27:03.816Z,87.55
2023-10-21T01:27:24.834Z,87.10
2023-10-21T01:27:45.697Z,86.39
2023-10-21T01:28:06.646Z,86.08
2023-10-21T01:28:27.595Z,85.94
2023-10-21T01:28:48.506Z,85.63
2023-10-21T01:29:09.473Z,85.33
2023-10-21T01:29:30.452Z,85.33
2023-10-21T01:29:51.484Z,85.22
2023-10-21T01:30:12.435Z,85.33
2023-10-21T01:30:33.346Z,85.33
2023-10-21T01:30:54.320Z,85.33
2023-10-21T01:31:15.264Z,85.13
2023-10-21T01:31:36.195Z,85.33
2023-10-21T01:31:57.136Z,86.86
2023-10-21T01:32:18.065Z,89.61
2023-10-21T01:32:39.090Z,90.63
2023-10-21T01:33:00.001Z,90.73
2023-10-21T01:33:21.819Z,90.73
2023-10-21T01:33:41.938Z,90.53
2023-10-21T01:34:02.527Z,90.53
2023-10-21T01:34:22.968Z,91.35
2023-10-21T01:34:43.887Z,91.79
2023-10-21T01:35:04.871Z,92.00
2023-10-21T01:35:25.788Z,92.81
2023-10-21T01:35:46.854Z,92.71
2023-10-21T01:36:07.323Z,90.41
2023-10-21T01:36:28.236Z,88.26
2023-10-21T01:36:49.150Z,88.57
2023-10-21T01:37:10.077Z,88.57
2023-10-21T01:37:31.023Z,87.85
2023-10-21T01:37:51.959Z,87.61
2023-10-21T01:38:13.954Z,87.82
2023-10-21T01:38:33.905Z,87.51
2023-10-21T01:38:54.923Z,87.00
2023-10-21T01:39:15.898Z,87.00
2023-10-21T01:39:36.872Z,87.61
2023-10-21T01:39:57.294Z,88.43
2023-10-21T01:40:18.235Z,88.32
2023-10-21T01:40:39.170Z,87.10
2023-10-21T01:41:00.191Z,87.41
2023-10-21T01:41:20.927Z,88.32
2023-10-21T01:41:41.390Z,87.92
2023-10-21T01:42:02.312Z,87.82
2023-10-21T01:42:23.272Z,87.61
2023-10-21T01:42:44.175Z,87.20
2023-10-21T01:43:05.134Z,87.20
2023-10-21T01:43:26.106Z,87.10
2023-10-21T01:43:47.026Z,87.51
2023-10-21T01:44:07.970Z,88.43
2023-10-21T01:44:28.915Z,88.84
2023-10-21T01:44:49.923Z,88.84
2023-10-21T01:45:10.679Z,89.14
2023-10-21T01:45:31.071Z,88.43
2023-10-21T01:45:52.026Z,89.45
2023-10-21T01:46:13.060Z,90.98
2023-10-21T01:46:33.437Z,91.69
2023-10-21T01:46:54.416Z,92.00
2023-10-21T01:47:15.385Z,92.10
2023-10-21T01:47:36.326Z,92.50
2023-10-21T01:47:57.005Z,93.12
2023-10-21T01:48:17.487Z,93.32
2023-10-21T01:48:37.988Z,92.50
2023-10-21T01:48:58.905Z,91.12
2023-10-21T01:49:19.868Z,90.51
2023-10-21T01:49:40.838Z,90.81
2023-10-21T01:50:01.755Z,90.61
2023-10-21T01:50:22.693Z,91.43
2023-10-21T01:50:43.648Z,92.24
2023-10-21T01:51:04.596Z,92.14
2023-10-21T01:51:25.548Z,91.74
2023-10-21T01:51:46.473Z,92.04
2023-10-21T01:52:07.419Z,93.57
2023-10-21T01:52:28.314Z,94.49
2023-10-21T01:52:49.268Z,95.10
2023-10-21T01:53:10.290Z,95.31
2023-10-21T01:53:30.736Z,95.41
2023-10-21T01:53:51.742Z,95.45
2023-10-21T01:54:12.698Z,95.76
2023-10-21T01:54:33.597Z,96.27
2023-10-21T01:54:54.572Z,96.58
2023-10-21T01:55:15.521Z,96.58
2023-10-21T01:55:36.442Z,96.58
2023-10-21T01:55:57.377Z,96.68
2023-10-21T01:56:18.344Z,96.68
2023-10-21T01:56:39.314Z,96.78
2023-10-21T01:57:00.251Z,96.78
2023-10-21T01:57:21.214Z,96.88
2023-10-21T01:57:42.161Z,97.08
2023-10-21T01:58:03.102Z,97.33
2023-10-21T01:58:24.068Z,97.44
2023-10-21T01:58:45.029Z,97.54
2023-10-21T01:59:05.953Z,97.74
2023-10-21T01:59:26.887Z,97.74
2023-10-21T01:59:47.833Z,97.74
2023-10-21T02:00:08.839Z,97.74
2023-10-21T02:00:29.734Z,97.74
2023-10-21T02:00:50.714Z,97.95
2023-10-21T02:01:11.813Z,98.25
2023-10-21T02:01:32.270Z,98.50
2023-10-21T02:01:53.194Z,98.71
2023-10-21T02:02:14.187Z,98.91
2023-10-21T02:02:35.171Z,99.11
2023-10-21T02:02:56.255Z,99.11
2023-10-21T02:03:16.768Z,99.11
2023-10-21T02:03:37.542Z,99.11
2023-10-21T02:03:58.121Z,99.22
2023-10-21T02:04:18.536Z,99.22
2023-10-21T02:04:39.487Z,99.32
2023-10-21T02:05:00.436Z,99.43
2023-10-21T02:05:21.387Z,99.63
2023-10-21T02:05:42.280Z,99.84
2023-10-21T02:06:03.295Z,99.99
2023-10-21T02:06:24.230Z,99.99
2023-10-21T02:06:45.187Z,99.99
2023-10-21T02:07:06.091Z,99.99
2023-10-21T02:07:27.055Z,99.99
2023-10-21T02:07:47.996Z,99.99
2023-10-21T02:08:08.911Z,99.99
2023-10-21T02:08:29.840Z,99.99
2023-10-21T02:08:50.778Z,99.99
2023-10-21T02:09:11.787Z,99.99
2023-10-21T02:09:32.711Z,99.99
2023-10-21T02:09:53.659Z,99.99
2023-10-21T02:10:14.573Z,99.99
2023-10-21T02:10:35.519Z,99.99
2023-10-21T02:10:56.434Z,99.99
2023-10-21T02:11:17.396Z,99.99
2023-10-21T02:11:37.962Z,99.99
2023-10-21T02:11:58.956Z,99.99
2023-10-21T02:12:19.891Z,99.99
2023-10-21T02:12:40.822Z,99.99
2023-10-21T02:13:01.742Z,99.99
2023-10-21T02:13:22.700Z,99.99
2023-10-21T02:13:43.671Z,99.99
2023-10-21T02:14:04.635Z,99.99
2023-10-21T02:14:25.552Z,99.99
2023-10-21T02:14:46.502Z,99.99
2023-10-21T02:15:07.546Z,99.99
2023-10-21T02:15:27.948Z,99.99
2023-10-21T02:15:48.902Z,99.99
2023-10-21T02:16:09.861Z,99.99
2023-10-21T02:16:30.758Z,98.49
2023-10-21T02:16:51.713Z,96.14
2023-10-21T02:17:12.658Z,95.69
2023-10-21T02:17:33.639Z,97.12
2023-10-21T02:17:54.630Z,97.74
2023-10-21T02:18:15.147Z,98.24
2023-10-21T02:18:35.582Z,98.45
2023-10-21T02:18:56.549Z,98.14
2023-10-21T02:19:17.018Z,97.99
2023-10-21T02:19:37.947Z,96.87
2023-10-21T02:19:58.875Z,93.70
2023-10-21T02:20:19.837Z,91.41
2023-10-21T02:20:40.817Z,90.80
2023-10-21T02:21:01.750Z,90.70
2023-10-21T02:21:22.697Z,91.98
2023-10-21T02:21:43.613Z,93.62
2023-10-21T02:22:04.576Z,94.84
2023-10-21T02:22:25.604Z,95.35
2023-10-21T02:22:46.542Z,95.65
2023-10-21T02:23:07.442Z,95.76
2023-10-21T02:23:28.397Z,95.76
2023-10-21T02:23:49.307Z,95.96
2023-10-21T02:24:10.303Z,96.68
2023-10-21T02:24:31.216Z,97.08
2023-10-21T02:24:52.177Z,97.60
2023-10-21T02:25:14.465Z,97.90
2023-10-21T02:25:34.021Z,98.00
2023-10-21T02:25:54.658Z,98.11
2023-10-21T02:26:15.587Z,98.21
2023-10-21T02:26:37.191Z,98.00
2023-10-21T02:26:57.092Z,98.00
2023-10-21T02:27:18.041Z,97.60
2023-10-21T02:27:38.931Z,97.13
2023-10-21T02:27:59.851Z,97.44
2023-10-21T02:28:20.794Z,97.64
2023-10-21T02:28:41.735Z,97.85
2023-10-21T02:29:02.699Z,97.85
2023-10-21T02:29:23.691Z,98.05
2023-10-21T02:29:44.665Z,98.15
2023-10-21T02:30:05.634Z,98.25
2023-10-21T02:30:26.540Z,98.56
2023-10-21T02:30:47.487Z,98.66
2023-10-21T02:31:08.461Z,98.20
2023-10-21T02:31:29.523Z,96.97
2023-10-21T02:31:50.007Z,95.44
2023-10-21T02:32:10.884Z,95.03
2023-10-21T02:32:31.863Z,95.44
2023-10-21T02:32:52.827Z,95.95
2023-10-21T02:33:13.866Z,96.77
2023-10-21T02:33:34.348Z,97.28
2023-10-21T02:33:54.828Z,97.99
2023-10-21T02:34:15.722Z,98.40
2023-10-21T02:34:36.699Z,98.61
2023-10-21T02:34:57.660Z,98.91
2023-10-21T02:35:18.597Z,99.32
2023-10-21T02:35:39.554Z,99.52
2023-10-21T02:36:00.523Z,99.43
2023-10-21T02:36:21.504Z,99.47
2023-10-21T02:36:42.347Z,99.47
2023-10-21T02:37:03.329Z,99.47
2023-10-21T02:37:24.272Z,99.47
2023-10-21T02:37:45.225Z,99.57
2023-10-21T02:38:06.217Z,99.57
2023-10-21T02:38:27.143Z,99.68
2023-10-21T02:38:48.132Z,99.88
2023-10-21T02:39:09.265Z,99.99
2023-10-21T02:39:29.926Z,99.99
2023-10-21T02:39:50.907Z,99.99
2023-10-21T02:40:11.340Z,99.99
2023-10-21T02:40:32.270Z,99.99
2023-10-21T02:40:53.261Z,99.99
2023-10-21T02:41:13.744Z,99.99
2023-10-21T02:41:34.700Z,99.99
2023-10-21T02:41:55.682Z,99.99
2023-10-21T02:42:16.655Z,99.99
2023-10-21T02:42:37.530Z,99.99
2023-10-21T02:42:58.449Z,99.99
2023-10-21T02:43:19.389Z,99.99
2023-10-21T02:43:40.360Z,99.99
2023-10-21T02:44:01.334Z,99.99
2023-10-21T02:44:22.289Z,99.99
2023-10-21T02:44:43.215Z,99.99
2023-10-21T02:46:12.829Z,99.99
2023-10-21T02:46:33.752Z,99.99
2023-10-21T02:46:54.708Z,99.99
2023-10-21T02:47:15.628Z,99.99
2023-10-21T02:47:36.602Z,99.99
2023-10-21T02:47:57.657Z,99.99
2023-10-21T02:48:18.145Z,99.99
2023-10-21T02:48:39.248Z,99.99
2023-10-21T02:48:59.620Z,99.99
2023-10-21T02:49:20.545Z,99.99
2023-10-21T02:49:41.498Z,99.99
2023-10-21T02:50:02.431Z,99.99
2023-10-21T02:50:23.361Z,99.99
2023-10-21T02:50:44.331Z,99.99
2023-10-21T02:51:05.281Z,99.99
2023-10-21T02:51:26.200Z,99.99
2023-10-21T02:51:47.177Z,99.99
2023-10-21T02:52:08.126Z,99.99
2023-10-21T02:52:29.074Z,99.99
2023-10-21T02:52:50.040Z,99.99
2023-10-21T02:53:11.000Z,99.77
2023-10-21T02:53:31.910Z,98.74
2023-10-21T02:53:52.858Z,98.39
2023-10-21T02:54:13.817Z,98.70
2023-10-21T02:54:34.728Z,99.01
2023-10-21T02:54:55.672Z,99.31
2023-10-21T02:55:16.614Z,99.41
2023-10-21T02:55:37.584Z,99.62
2023-10-21T02:55:58.485Z,99.99
2023-10-21T02:56:19.428Z,99.99
2023-10-21T02:56:40.359Z,99.99
2023-10-21T02:57:01.361Z,99.99
2023-10-21T02:57:22.289Z,99.99
2023-10-21T02:57:43.198Z,99.99
2023-10-21T02:58:04.160Z,99.99
2023-10-21T02:58:25.084Z,99.99
2023-10-21T02:58:46.041Z,99.99
2023-10-21T02:59:06.974Z,99.99
2023-10-21T02:59:27.918Z,99.99
2023-10-21T02:59:48.899Z,99.99
2023-10-21T03:00:09.778Z,99.99
2023-10-21T03:00:30.715Z,99.99
2023-10-21T03:00:51.678Z,99.99
2023-10-21T03:01:12.612Z,99.99
2023-10-21T03:01:33.525Z,99.99
2023-10-21T03:01:54.463Z,99.99
2023-10-21T03:02:15.438Z,99.99
2023-10-21T03:02:36.395Z,99.99
2023-10-21T03:02:57.488Z,99.99
2023-10-21T03:03:18.331Z,99.99
2023-10-21T03:03:38.830Z,99.99
2023-10-21T03:03:59.394Z,99.99
2023-10-21T03:04:19.962Z,99.88
2023-10-21T03:04:40.349Z,99.72
2023-10-21T03:05:01.278Z,99.52
2023-10-21T03:05:22.246Z,99.41
2023-10-21T03:05:43.177Z,99.31
2023-10-21T03:06:04.104Z,99.31
2023-10-21T03:06:25.042Z,99.31
2023-10-21T03:06:45.981Z,99.62
2023-10-21T03:07:06.922Z,99.93
2023-10-21T03:07:27.849Z,99.99
2023-10-21T03:07:48.795Z,99.99
2023-10-21T03:08:09.702Z,99.99
2023-10-21T03:08:30.639Z,99.99
2023-10-21T03:08:51.581Z,99.99
2023-10-21T03:09:12.527Z,99.99
2023-10-21T03:09:33.514Z,99.99
2023-10-21T03:09:53.963Z,99.99
2023-10-21T03:10:14.888Z,99.99
2023-10-21T03:10:35.850Z,99.99
2023-10-21T03:10:56.765Z,99.99
2023-10-21T03:11:17.703Z,99.99
2023-10-21T03:11:38.634Z,99.99
2023-10-21T03:11:59.597Z,99.99
2023-10-21T03:12:20.561Z,99.99
2023-10-21T03:12:44.691Z,99.99
2023-10-21T03:13:02.197Z,99.99
2023-10-21T03:13:23.118Z,99.99
2023-10-21T03:13:44.068Z,99.99
2023-10-21T03:14:04.996Z,99.99
2023-10-21T03:14:25.986Z,99.99
2023-10-21T03:14:46.971Z,99.99
2023-10-21T03:15:07.953Z,99.99
2023-10-21T03:15:28.522Z,99.99
2023-10-21T03:15:49.250Z,99.99
2023-10-21T03:16:10.220Z,99.99
2023-10-21T03:16:31.109Z,99.99
2023-10-21T03:16:52.087Z,99.99
2023-10-21T03:17:13.035Z,99.99
2023-10-21T03:17:33.993Z,99.99
2023-10-21T03:17:55.011Z,99.99
2023-10-21T03:18:15.476Z,99.99
2023-10-21T03:18:36.514Z,99.99
2023-10-21T03:18:56.892Z,99.99
2023-10-21T03:19:17.842Z,99.99
2023-10-21T03:19:38.988Z,99.99
2023-10-21T03:19:59.482Z,99.99
2023-10-21T03:20:20.426Z,99.99
2023-10-21T03:20:41.395Z,99.99
2023-10-21T03:21:02.337Z,99.99
2023-10-21T03:21:23.320Z,99.99
2023-10-21T03:21:44.167Z,99.99
2023-10-21T03:22:05.090Z,99.99
2023-10-21T03:22:26.039Z,99.99
2023-10-21T03:22:46.999Z,99.99
2023-10-21T03:23:07.924Z,99.99
2023-10-21T03:23:28.885Z,99.99
2023-10-21T03:23:49.886Z,99.99
2023-10-21T03:24:10.802Z,99.99
2023-10-21T03:24:31.717Z,99.99
2023-10-21T03:26:01.685Z,99.99
2023-10-21T03:26:22.620Z,99.99
2023-10-21T03:26:43.568Z,99.99
2023-10-21T03:27:04.495Z,99.99
2023-10-21T03:27:25.498Z,99.99
2023-10-21T03:27:46.378Z,99.99
2023-10-21T03:28:07.291Z,99.99
2023-10-21T03:28:28.212Z,99.99
2023-10-21T03:28:49.187Z,99.99
2023-10-21T03:29:12.875Z,99.99
2023-10-21T03:29:30.658Z,99.99
2023-10-21T03:29:51.621Z,99.99
2023-10-21T03:30:12.596Z,99.99
2023-10-21T03:30:33.538Z,99.99
2023-10-21T03:30:54.546Z,99.99
2023-10-21T03:31:15.454Z,99.99
2023-10-21T03:31:36.414Z,99.99
2023-10-21T03:31:57.321Z,99.99
2023-10-21T03:32:18.248Z,99.99
2023-10-21T03:32:39.209Z,99.99
2023-10-21T03:33:00.212Z,99.99
2023-10-21T03:33:21.203Z,99.99
2023-10-21T03:33:42.105Z,99.99
2023-10-21T03:34:03.031Z,99.99
2023-10-21T03:34:23.977Z,99.99
2023-10-21T03:34:44.915Z,99.99
2023-10-21T03:35:05.867Z,99.99
2023-10-21T03:35:26.789Z,99.99
2023-10-21T03:35:47.722Z,99.99
2023-10-21T03:36:08.861Z,99.99
2023-10-21T03:36:29.256Z,99.99
2023-10-21T03:36:50.208Z,99.99
2023-10-21T03:37:11.149Z,99.99
2023-10-21T03:37:32.102Z,99.99
2023-10-21T03:37:53.064Z,99.99
2023-10-21T03:38:14.011Z,99.99
2023-10-21T03:38:34.934Z,99.99
2023-10-21T03:38:55.926Z,99.99
2023-10-21T03:39:16.859Z,99.99
2023-10-21T03:39:37.777Z,99.99
2023-10-21T03:39:58.694Z,99.99
2023-10-21T03:40:19.647Z,99.99
2023-10-21T03:40:40.598Z,99.99
2023-10-21T03:41:01.559Z,99.99
2023-10-21T03:41:22.521Z,99.99
2023-10-21T03:41:43.443Z,99.99
2023-10-21T03:42:04.422Z,99.99
2023-10-21T03:42:25.380Z,99.99
2023-10-21T03:42:46.256Z,99.99
2023-10-21T03:43:07.195Z,99.99
2023-10-21T03:43:28.125Z,99.99
2023-10-21T03:43:49.042Z,99.99
2023-10-21T03:44:10.000Z,99.99
2023-10-21T03:44:30.933Z,99.99
2023-10-21T03:44:51.905Z,99.99
2023-10-21T03:45:12.880Z,99.99
2023-10-21T03:45:33.781Z,99.99
2023-10-21T03:45:54.712Z,99.99
2023-10-21T03:46:16.009Z,99.99
2023-10-21T03:46:36.599Z,99.99
2023-10-21T03:46:57.560Z,99.99
2023-10-21T03:47:18.460Z,99.99
2023-10-21T03:47:39.423Z,99.99
2023-10-21T03:47:59.949Z,99.99
2023-10-21T03:48:21.029Z,99.99
2023-10-21T03:48:41.744Z,99.99
2023-10-21T03:49:02.652Z,99.99
2023-10-21T03:49:23.619Z,99.99
2023-10-21T03:49:44.579Z,99.99
2023-10-21T03:50:05.529Z,99.99
2023-10-21T03:50:26.486Z,99.99
2023-10-21T03:50:47.481Z,99.99
2023-10-21T03:51:08.402Z,99.99
2023-10-21T03:51:29.339Z,99.99
2023-10-21T03:51:50.285Z,99.99
2023-10-21T03:52:11.228Z,99.99
2023-10-21T03:52:32.178Z,99.99
2023-10-21T03:52:53.108Z,99.99
2023-10-21T03:53:14.048Z,99.99
2023-10-21T03:53:34.978Z,99.99
2023-10-21T03:53:56.007Z,99.99
2023-10-21T03:54:16.984Z,99.99
2023-10-21T03:54:37.971Z,99.99
2023-10-21T03:54:58.445Z,99.99
2023-10-21T03:55:19.348Z,99.99
2023-10-21T03:55:40.283Z,99.99
2023-10-21T03:56:02.137Z,99.99
2023-10-21T03:56:21.822Z,99.99
2023-10-21T03:56:42.750Z,99.99
2023-10-21T03:57:03.723Z,99.99
2023-10-21T03:57:24.737Z,99.99
2023-10-21T03:57:45.644Z,99.99
2023-10-21T03:58:06.626Z,99.99
2023-10-21T03:58:27.535Z,99.99
2023-10-21T03:58:48.479Z,99.99
2023-10-21T03:59:09.404Z,99.99
2023-10-21T03:59:30.320Z,99.99
2023-10-21T03:59:51.297Z,99.99
2023-10-21T04:00:12.265Z,99.99
2023-10-21T04:00:33.194Z,99.99
2023-10-21T04:00:54.154Z,99.99
2023-10-21T04:01:15.253Z,99.99
2023-10-21T04:01:35.673Z,99.99
2023-10-21T04:01:56.629Z,99.99
2023-10-21T04:02:17.552Z,99.99
2023-10-21T04:02:38.482Z,99.99
2023-10-21T04:02:59.610Z,99.99
2023-10-21T04:03:20.168Z,99.99
2023-10-21T04:03:40.739Z,99.99
2023-10-21T04:04:01.517Z,99.99
2023-10-21T04:04:22.408Z,99.99
2023-10-21T04:04:42.964Z,99.99
2023-10-21T04:05:03.401Z,99.99
2023-10-21T04:05:24.349Z,99.99
2023-10-21T04:05:45.394Z,99.99
2023-10-21T04:06:05.797Z,99.99
2023-10-21T04:06:26.790Z,99.99
2023-10-21T04:06:47.691Z,99.99
2023-10-21T04:07:08.636Z,99.99
2023-10-21T04:07:29.560Z,99.99
2023-10-21T04:07:50.499Z,99.99
2023-10-21T04:08:10.991Z,99.99
2023-10-21T04:08:32.017Z,99.99
2023-10-21T04:08:52.496Z,99.99
2023-10-21T04:09:13.445Z,99.99
2023-10-21T04:09:34.342Z,99.99
2023-10-21T04:09:55.311Z,99.99
2023-10-21T04:10:16.218Z,99.99
2023-10-21T04:10:37.176Z,99.99
2023-10-21T04:10:58.118Z,99.99
2023-10-21T04:11:19.053Z,99.99
2023-10-21T04:11:39.970Z,99.99
2023-10-21T04:12:00.954Z,99.99
2023-10-21T04:12:21.921Z,99.99
2023-10-21T04:12:42.820Z,99.99
2023-10-21T04:13:03.783Z,99.99
2023-10-21T04:13:24.717Z,99.99
2023-10-21T04:13:45.639Z,99.99
2023-10-21T04:14:06.603Z,99.99
2023-10-21T04:14:27.591Z,99.99
2023-10-21T04:14:48.576Z,99.99
2023-10-21T04:15:09.581Z,99.99
2023-10-21T04:15:30.436Z,99.99
2023-10-21T04:15:51.392Z,99.99
2023-10-21T04:16:12.404Z,99.99
2023-10-21T04:16:33.303Z,99.99
2023-10-21T04:16:54.232Z,99.99
2023-10-21T04:17:15.170Z,99.99
2023-10-21T04:17:36.122Z,99.99
2023-10-21T04:17:57.157Z,99.99
2023-10-21T04:18:18.067Z,99.99
2023-10-21T04:18:39.062Z,99.99
2023-10-21T04:19:00.197Z,99.99
2023-10-21T04:19:20.629Z,99.99
2023-10-21T04:19:41.548Z,99.99
2023-10-21T04:20:02.516Z,99.99
2023-10-21T04:20:23.483Z,99.99
2023-10-21T04:20:44.407Z,99.99
2023-10-21T04:21:05.386Z,99.99
2023-10-21T04:21:26.444Z,99.99
2023-10-21T04:21:46.891Z,99.99
2023-10-21T04:22:07.809Z,99.99
2023-10-21T04:22:28.753Z,99.99
2023-10-21T04:22:49.675Z,99.99
2023-10-21T04:23:10.595Z,99.99
2023-10-21T04:23:31.513Z,99.99
2023-10-21T04:23:52.470Z,99.99
2023-10-21T04:24:13.424Z,99.99
2023-10-21T04:24:34.668Z,99.99
2023-10-21T04:24:55.189Z,99.99
2023-10-21T04:25:16.166Z,99.99
2023-10-21T04:25:37.127Z,99.99
2023-10-21T04:25:58.070Z,99.99
2023-10-21T04:26:21.007Z,99.99
2023-10-21T04:26:39.880Z,99.99
2023-10-21T04:27:00.816Z,99.99
2023-10-21T04:27:21.744Z,99.99
2023-10-21T04:27:42.666Z,99.99
2023-10-21T04:28:03.609Z,99.99
2023-10-21T04:28:24.562Z,99.99
2023-10-21T04:28:45.497Z,99.99
2023-10-21T04:29:06.440Z,99.99
2023-10-21T04:29:27.396Z,99.99
2023-10-21T04:29:48.354Z,99.99
2023-10-21T04:30:09.359Z,99.99
2023-10-21T04:30:29.896Z,99.99
2023-10-21T04:30:50.457Z,99.99
2023-10-21T04:31:11.386Z,99.99